Accueil
METAR-TAF:

METAR-TAF

Aéroports :

Aéroport Andorre

La Seu d'Urgell, Espagne

latitude: 42-20-29N, longitude: 001-24-17E, altitude: 802 m

Observation

Le bulletin a été fait il y a 23 heures et 53 minutes, à 16:00 UTC
Vent 8 kt de sud-ouest, variant entre sud et ouest/sud-ouest
Température 20°C
Humidité 49%
Pression 1024 hPa
Visibilité 10 km ou plus
Quelques nuages à une hauteur de 5000 ft

METAR: LESU 181600Z 23008KT 190V250 9999 FEW050 20/09 Q1024

Heure: 17:53 (15:53 UTC)

Prévision

Le bulletin a été fait il y a 25 heures et 53 minutes, à 14:00 UTC
Prévision valable du 18 à 15 UTC au 19 à 15 UTC
Vent 5 kt de sud/sud-ouest
Visibilité 10 km ou plus
Quelques nuages à une hauteur de 5000 ft

TAF: LESU 181400Z 1815/1915 21005KT 9999 FEW050 TX24/1914Z TN04/1906Z

Observations et prévisions météorologiques de plus de 4000 aéroports (messages METAR et TAF).

Les stations disponibles sont représentées par des disques jaunes et rouges sur la carte.

Passer la souris dessus pour voir le nom de la station.

Cliquer dessus pour voir les observations et prévisions météorologiques.

Pour changer de carte: cliquez sur les boutons verts avec une croix noire pour zoomer, sur le bouton vert avec un tiret pour effectuer un zoom arrière, ou sur les flèches vertes pour les cartes adjacentes.


METAR-TAF: